Time,TemperatureF,DewpointF,PressureIn,WindDirection,WindDirectionDegrees,WindSpeedMPH,WindSpeedGustMPH,Humidity,HourlyPrecipIn,Conditions,Clouds,dailyrainin,SoftwareType,DateUTC
2013-08-07 00:01:00,53.0,37.7,30.13,SW,225,3.5,3.5,56,0.00,CLR,,0.00,WeatherDisplay:10.37,2013-08-07 04:01:00,
2013-08-07 00:02:00,52.9,37.6,30.13,SSE,158,4.6,4.6,56,0.00,CLR,,0.00,WeatherDisplay:10.37,2013-08-07 04:02:00,
2013-08-07 00:04:00,52.9,37.6,30.13,SSE,158,4.6,4.6,56,0.00,CLR,,0.00,WeatherDisplay:10.37,2013-08-07 04:04:00,
2013-08-07 00:06:00,52.9,37.6,30.13,South,180,3.5,3.5,56,0.00,CLR,,0.00,WeatherDisplay:10.37,2013-08-07 04:06:00,
2013-08-07 00:10:00,53.0,49.2,30.13,SSE,158,4.6,4.6,87,0.00,CLR,,0.00,WeatherDisplay:10.37,2013-08-07 04:10:00,
2013-08-07 00:15:00,52.8,37.1,30.13,SSW,202,3.5,3.5,55,0.00,CLR,,0.00,WeatherDisplay:10.37,2013-08-07 04:15:00,
2013-08-07 00:20:00,52.9,38.1,30.13,South,180,3.5,3.5,57,0.00,CLR,,0.00,WeatherDisplay:10.37,2013-08-07 04:20:00,
2013-08-07 00:25:00,52.6,37.8,30.13,SSW,202,3.5,3.5,57,0.00,CLR,,0.00,WeatherDisplay:10.37,2013-08-07 04:25:00,
2013-08-07 00:30:00,52.6,37.4,30.13,SW,225,3.5,3.5,56,0.00,CLR,,0.00,WeatherDisplay:10.37,2013-08-07 04:30:00,
2013-08-07 00:35:00,52.3,37.0,30.13,WSW,248,3.5,3.5,56,0.00,CLR,,0.00,WeatherDisplay:10.37,2013-08-07 04:35:00,
2013-08-07 00:40:00,52.2,37.0,30.13,WSW,248,3.5,3.5,56,0.00,CLR,,0.00,WeatherDisplay:10.37,2013-08-07 04:40:00,
2013-08-07 00:45:00,52.3,37.0,30.13,SW,225,3.5,3.5,56,0.00,CLR,,0.00,WeatherDisplay:10.37,2013-08-07 04:45:00,
2013-08-07 00:50:00,52.1,36.9,30.13,West,270,3.5,3.5,56,0.00,CLR,,0.00,WeatherDisplay:10.37,2013-08-07 04:50:00,
2013-08-07 00:55:00,52.0,48.3,30.13,SSW,202,3.5,3.5,87,0.00,CLR,,0.00,WeatherDisplay:10.37,2013-08-07 04:55:00,
2013-08-07 01:00:00,52.0,36.3,30.13,SW,225,3.5,3.5,55,0.00,CLR,,0.00,WeatherDisplay:10.37,2013-08-07 05:00:00,
2013-08-07 01:05:00,52.0,46.7,30.14,SW,225,1.2,1.2,82,0.00,CLR,,0.00,WeatherDisplay:10.37,2013-08-07 05:05:00,
2013-08-07 01:10:00,51.9,36.2,30.14,NNW,338,0.0,0.0,55,0.00,CLR,,0.00,WeatherDisplay:10.37,2013-08-07 05:10:00,
2013-08-07 01:15:00,51.4,36.2,30.14,SSE,158,0.0,0.0,56,0.00,CLR,,0.00,WeatherDisplay:10.37,2013-08-07 05:15:00,
2013-08-07 01:20:00,51.4,36.2,30.14,West,270,0.0,0.0,56,0.00,CLR,,0.00,WeatherDisplay:10.37,2013-08-07 05:20:00,
2013-08-07 01:25:00,51.4,36.7,30.14,SW,225,0.0,0.0,57,0.00,CLR,,0.00,WeatherDisplay:10.37,2013-08-07 05:25:00,
2013-08-07 01:30:00,51.4,46.1,30.14,WSW,248,0.0,0.0,82,0.00,CLR,,0.00,WeatherDisplay:10.37,2013-08-07 05:30:00,
2013-08-07 01:36:00,51.6,36.4,30.14,West,270,0.0,0.0,56,0.00,CLR,,0.00,WeatherDisplay:10.37,2013-08-07 05:36:00,
2013-08-07 01:40:00,51.9,36.2,30.14,SE,135,0.0,0.0,55,0.00,CLR,,0.00,WeatherDisplay:10.37,2013-08-07 05:40:00,
2013-08-07 01:45:00,52.0,46.7,30.14,SW,225,0.0,0.0,82,0.00,CLR,,0.00,WeatherDisplay:10.37,2013-08-07 05:45:00,
2013-08-07 01:50:00,51.9,36.2,30.14,WSW,248,0.0,0.0,55,0.00,CLR,,0.00,WeatherDisplay:10.37,2013-08-07 05:50:00,
2013-08-07 01:55:00,52.0,36.8,30.14,West,270,0.0,0.0,56,0.00,CLR,,0.00,WeatherDisplay:10.37,2013-08-07 05:55:00,
2013-08-07 02:01:00,52.2,37.0,30.14,SSE,158,0.0,0.0,56,0.00,CLR,,0.00,WeatherDisplay:10.37,2013-08-07 06:01:00,
2013-08-07 02:05:00,52.4,37.1,30.14,South,180,0.0,0.0,56,0.00,OVC,,0.00,WeatherDisplay:10.37,2013-08-07 06:05:00,
2013-08-07 02:11:00,52.4,37.2,30.14,SSE,158,0.0,0.0,56,0.00,OVC,,0.00,WeatherDisplay:10.37,2013-08-07 06:11:00,
2013-08-07 02:15:00,52.7,37.4,30.14,SSE,158,0.0,0.0,56,0.00,OVC,,0.00,WeatherDisplay:10.37,2013-08-07 06:15:00,
2013-08-07 02:20:00,52.8,37.5,30.14,SW,225,3.5,3.5,56,0.00,OVC,,0.00,WeatherDisplay:10.37,2013-08-07 06:20:00,
2013-08-07 02:25:00,53.2,47.8,30.14,South,180,3.5,3.5,82,0.00,OVC,,0.00,WeatherDisplay:10.37,2013-08-07 06:25:00,
2013-08-07 02:30:00,53.4,37.6,30.14,SW,225,1.5,1.5,55,0.00,OVC,,0.00,WeatherDisplay:10.37,2013-08-07 06:30:00,
2013-08-07 02:36:00,53.5,38.2,30.14,WSW,248,3.5,3.5,56,0.00,OVC,,0.00,WeatherDisplay:10.37,2013-08-07 06:36:00,
2013-08-07 02:41:00,53.9,38.6,30.14,SE,135,0.0,0.0,56,0.00,OVC,,0.00,WeatherDisplay:10.37,2013-08-07 06:41:00,
2013-08-07 02:46:00,53.9,38.5,30.14,West,270,0.0,0.0,56,0.00,OVC,,0.00,WeatherDisplay:10.37,2013-08-07 06:46:00,
2013-08-07 02:51:00,53.8,48.4,30.14,SW,225,0.0,0.0,82,0.00,OVC,,0.00,WeatherDisplay:10.37,2013-08-07 06:51:00,
2013-08-07 02:56:00,53.9,38.5,30.14,West,270,0.0,0.0,56,0.00,OVC,,0.00,WeatherDisplay:10.37,2013-08-07 06:56:00,
2013-08-07 03:01:00,53.9,39.0,30.15,WSW,248,1.2,0.0,57,0.00,OVC,,0.00,WeatherDisplay:10.37,2013-08-07 07:01:00,
2013-08-07 03:06:00,54.0,39.1,30.15,SW,225,0.0,0.0,57,0.00,OVC,,0.00,WeatherDisplay:10.37,2013-08-07 07:06:00,
2013-08-07 03:11:00,54.1,38.7,30.15,ESE,112,0.0,0.0,56,0.00,OVC,,0.00,WeatherDisplay:10.37,2013-08-07 07:11:00,
2013-08-07 03:16:00,54.2,38.8,30.15,NW,315,0.0,0.0,56,0.00,OVC,,0.00,WeatherDisplay:10.37,2013-08-07 07:16:00,
2013-08-07 03:21:00,54.2,38.9,30.15,SW,225,0.0,0.0,56,0.00,OVC,,0.00,WeatherDisplay:10.37,2013-08-07 07:21:00,
2013-08-07 03:26:00,54.3,38.9,30.15,West,270,0.0,0.0,56,0.00,OVC,,0.00,WeatherDisplay:10.37,2013-08-07 07:26:00,
2013-08-07 03:31:00,54.2,38.8,30.15,WSW,248,0.0,0.0,56,0.00,OVC,,0.00,WeatherDisplay:10.37,2013-08-07 07:31:00,
2013-08-07 03:36:00,54.3,39.4,30.15,SW,225,0.0,0.0,57,0.00,OVC,,0.00,WeatherDisplay:10.37,2013-08-07 07:36:00,
2013-08-07 03:41:00,54.3,39.4,30.15,West,270,0.0,0.0,57,0.00,OVC,,0.00,WeatherDisplay:10.37,2013-08-07 07:41:00,
2013-08-07 03:46:00,54.3,38.9,30.15,East,90,0.0,0.0,56,0.00,OVC,,0.00,WeatherDisplay:10.37,2013-08-07 07:46:00,
2013-08-07 03:51:00,54.4,39.0,30.15,West,270,0.0,0.0,56,0.00,OVC,,0.00,WeatherDisplay:10.37,2013-08-07 07:51:00,
2013-08-07 03:56:00,54.4,38.6,30.15,WSW,248,0.0,0.0,55,0.00,OVC,,0.00,WeatherDisplay:10.37,2013-08-07 07:56:00,
2013-08-07 04:01:00,54.5,39.1,30.15,SSW,202,0.0,0.0,56,0.00,OVC,,0.00,WeatherDisplay:10.37,2013-08-07 08:01:00,
2013-08-07 04:06:00,54.6,38.8,30.15,SW,225,0.0,0.0,55,0.00,OVC,,0.00,WeatherDisplay:10.37,2013-08-07 08:06:00,
2013-08-07 04:11:00,54.6,49.2,30.15,West,270,0.0,0.0,82,0.00,OVC,,0.00,WeatherDisplay:10.37,2013-08-07 08:11:00,
2013-08-07 04:16:00,54.8,39.4,30.15,East,90,0.0,0.0,56,0.00,OVC,,0.00,WeatherDisplay:10.37,2013-08-07 08:16:00,
2013-08-07 04:21:00,54.8,39.4,30.15,West,270,0.0,0.0,56,0.00,OVC,,0.00,WeatherDisplay:10.37,2013-08-07 08:21:00,
2013-08-07 04:26:00,54.7,39.3,30.15,NNE,22,0.0,0.0,56,0.00,OVC,,0.00,WeatherDisplay:10.37,2013-08-07 08:26:00,
2013-08-07 04:31:00,54.7,39.3,30.15,West,270,0.0,0.0,56,0.00,OVC,,0.00,WeatherDisplay:10.37,2013-08-07 08:31:00,
2013-08-07 04:36:00,54.7,49.3,30.15,West,270,3.5,3.5,82,0.00,OVC,,0.00,WeatherDisplay:10.37,2013-08-07 08:36:00,
2013-08-07 04:41:00,54.8,39.4,30.15,WSW,248,4.6,4.6,56,0.00,OVC,,0.00,WeatherDisplay:10.37,2013-08-07 08:41:00,
2013-08-07 04:46:00,55.0,39.6,30.15,NW,315,0.0,0.0,56,0.00,OVC,,0.00,WeatherDisplay:10.37,2013-08-07 08:46:00,
2013-08-07 04:51:00,54.7,39.3,30.15,NNE,22,1.5,1.5,56,0.00,OVC,,0.00,WeatherDisplay:10.37,2013-08-07 08:51:00,
2013-08-07 04:56:00,54.8,39.9,30.15,SW,225,1.2,1.2,57,0.00,OVC,,0.00,WeatherDisplay:10.37,2013-08-07 08:56:00,
2013-08-07 05:01:00,54.8,39.4,30.15,West,270,0.0,0.0,56,0.00,OVC,,0.00,WeatherDisplay:10.37,2013-08-07 09:01:00,
2013-08-07 05:06:00,54.8,39.8,30.15,SW,225,0.0,0.0,57,0.00,OVC,,0.00,WeatherDisplay:10.37,2013-08-07 09:06:00,
2013-08-07 05:11:00,54.8,39.8,30.15,WSW,248,0.0,0.0,57,0.00,OVC,,0.00,WeatherDisplay:10.37,2013-08-07 09:11:00,
2013-08-07 05:16:00,54.7,47.6,30.15,NW,315,0.0,0.0,77,0.00,OVC,,0.00,WeatherDisplay:10.37,2013-08-07 09:16:00,
2013-08-07 05:21:00,54.7,47.7,30.15,NW,315,0.0,0.0,77,0.00,OVC,,0.00,WeatherDisplay:10.37,2013-08-07 09:21:00,
2013-08-07 05:26:00,54.8,39.4,30.15,West,270,0.0,0.0,56,0.00,OVC,,0.00,WeatherDisplay:10.37,2013-08-07 09:26:00,
2013-08-07 05:31:00,54.6,39.7,30.15,SW,225,0.0,0.0,57,0.00,OVC,,0.00,WeatherDisplay:10.37,2013-08-07 09:31:00,
2013-08-07 05:36:00,54.6,39.2,30.15,SW,225,0.0,0.0,56,0.00,OVC,,0.00,WeatherDisplay:10.37,2013-08-07 09:36:00,
2013-08-07 05:41:00,54.7,47.7,30.15,South,180,0.0,0.0,77,0.00,OVC,,0.00,WeatherDisplay:10.37,2013-08-07 09:41:00,
2013-08-07 05:46:00,54.8,39.4,30.15,West,270,0.0,0.0,56,0.00,OVC,,0.00,WeatherDisplay:10.37,2013-08-07 09:46:00,
2013-08-07 05:51:00,54.9,39.5,30.15,SW,225,0.0,0.0,56,0.00,OVC,,0.00,WeatherDisplay:10.37,2013-08-07 09:51:00,
2013-08-07 05:56:00,54.9,39.9,30.15,SSW,202,0.0,0.0,57,0.00,OVC,,0.00,WeatherDisplay:10.37,2013-08-07 09:56:00,
2013-08-07 06:01:00,55.1,48.0,30.15,SW,225,0.0,0.0,77,0.00,OVC,,0.00,WeatherDisplay:10.37,2013-08-07 10:01:00,
2013-08-07 06:06:00,55.1,39.6,30.15,SSE,158,0.0,0.0,56,0.00,OVC,,0.00,WeatherDisplay:10.37,2013-08-07 10:06:00,
2013-08-07 06:11:00,55.2,48.1,30.15,South,180,0.0,0.0,77,0.00,OVC,,0.00,WeatherDisplay:10.37,2013-08-07 10:11:00,
2013-08-07 06:16:00,55.4,48.3,30.15,South,180,0.0,0.0,77,0.00,OVC,,0.00,WeatherDisplay:10.37,2013-08-07 10:16:00,
2013-08-07 06:21:00,55.6,40.1,30.15,SSE,158,3.5,3.5,56,0.00,OVC,,0.00,WeatherDisplay:10.37,2013-08-07 10:21:00,
2013-08-07 06:26:00,56.2,40.7,30.15,SSE,158,4.6,4.6,56,0.00,OVC,,0.00,WeatherDisplay:10.37,2013-08-07 10:26:00,
2013-08-07 06:31:00,56.5,40.5,30.15,South,180,4.6,4.6,55,0.00,OVC,,0.00,WeatherDisplay:10.37,2013-08-07 10:31:00,
2013-08-07 06:36:00,56.8,41.2,30.15,SE,135,2.3,2.3,56,0.00,OVC,,0.00,WeatherDisplay:10.37,2013-08-07 10:36:00,
2013-08-07 06:41:00,56.8,41.7,30.15,SW,225,3.5,3.5,57,0.00,OVC,,0.00,WeatherDisplay:10.37,2013-08-07 10:41:00,
2013-08-07 06:46:00,56.9,41.8,30.15,SSW,202,3.5,3.5,57,0.00,OVC,,0.00,WeatherDisplay:10.37,2013-08-07 10:46:00,
2013-08-07 06:51:00,57.1,50.0,30.15,SW,225,3.5,3.5,77,0.00,OVC,,0.00,WeatherDisplay:10.37,2013-08-07 10:51:00,
2013-08-07 06:56:00,57.3,41.7,30.15,SSW,202,3.5,3.5,56,0.00,OVC,,0.00,WeatherDisplay:10.37,2013-08-07 10:56:00,
2013-08-07 07:01:00,57.7,52.2,30.15,South,180,1.5,1.5,82,0.00,OVC,,0.00,WeatherDisplay:10.37,2013-08-07 11:01:00,
2013-08-07 07:06:00,58.0,52.5,30.15,SSW,202,1.2,1.2,82,0.00,OVC,,0.00,WeatherDisplay:10.37,2013-08-07 11:06:00,
2013-08-07 07:11:00,58.3,52.9,30.15,SSE,158,4.6,4.6,82,0.00,OVC,,0.00,WeatherDisplay:10.37,2013-08-07 11:11:00,
2013-08-07 07:16:00,58.7,44.0,30.15,SE,135,4.6,4.6,58,0.00,OVC,,0.00,WeatherDisplay:10.37,2013-08-07 11:16:00,
2013-08-07 07:21:00,59.2,44.4,30.15,SSW,202,3.5,3.5,58,0.00,OVC,,0.00,WeatherDisplay:10.37,2013-08-07 11:21:00,
2013-08-07 07:26:00,59.6,44.4,30.15,SW,225,3.5,3.5,57,0.00,OVC,,0.00,WeatherDisplay:10.37,2013-08-07 11:26:00,
2013-08-07 07:31:00,60.0,44.2,30.15,South,180,3.5,3.5,56,0.00,OVC,,0.00,WeatherDisplay:10.37,2013-08-07 11:31:00,
2013-08-07 07:36:00,60.4,54.8,30.15,SW,225,2.3,2.3,82,0.00,OVC,,0.00,WeatherDisplay:10.37,2013-08-07 11:36:00,
2013-08-07 07:41:00,60.7,46.7,30.15,SSW,202,1.2,1.2,60,0.00,OVC,,0.00,WeatherDisplay:10.37,2013-08-07 11:41:00,
2013-08-07 07:46:00,61.0,47.5,30.15,SSE,158,4.6,4.6,61,0.00,OVC,,0.00,WeatherDisplay:10.37,2013-08-07 11:46:00,
2013-08-07 07:51:00,61.5,47.9,30.15,SSE,158,3.5,3.5,61,0.00,OVC,,0.00,WeatherDisplay:10.37,2013-08-07 11:51:00,
2013-08-07 07:56:00,62.0,48.9,30.15,West,270,1.2,0.0,62,0.00,OVC,,0.00,WeatherDisplay:10.37,2013-08-07 11:56:00,
2013-08-07 08:01:00,62.2,56.6,30.16,South,180,1.7,1.7,82,0.00,OVC,,0.00,WeatherDisplay:10.37,2013-08-07 12:01:00,
2013-08-07 08:06:00,63.0,49.3,30.16,SSW,202,1.2,1.2,61,0.00,OVC,,0.00,WeatherDisplay:10.37,2013-08-07 12:06:00,
2013-08-07 08:11:00,64.0,51.6,30.16,South,180,3.5,3.5,64,0.00,OVC,,0.00,WeatherDisplay:10.37,2013-08-07 12:11:00,
2013-08-07 08:16:00,65.0,52.1,30.16,SSW,202,1.2,1.2,63,0.00,OVC,,0.00,WeatherDisplay:10.37,2013-08-07 12:16:00,
2013-08-07 08:21:00,66.3,53.3,30.16,SW,225,0.0,0.0,63,0.00,OVC,,0.00,WeatherDisplay:10.37,2013-08-07 12:21:00,
2013-08-07 08:26:00,67.2,54.6,30.16,SW,225,0.0,0.0,64,0.00,OVC,,0.00,WeatherDisplay:10.37,2013-08-07 12:26:00,
2013-08-07 08:31:00,68.1,55.5,30.16,SSE,158,1.6,0.0,64,0.00,OVC,,0.00,WeatherDisplay:10.37,2013-08-07 12:31:00,
2013-08-07 08:36:00,68.6,62.9,30.16,SW,225,5.8,5.8,82,0.00,OVC,,0.00,WeatherDisplay:10.37,2013-08-07 12:36:00,
2013-08-07 08:41:00,69.0,55.8,30.16,SW,225,3.5,3.5,63,0.00,OVC,,0.00,WeatherDisplay:10.37,2013-08-07 12:41:00,
2013-08-07 08:46:00,69.4,56.6,30.16,South,180,4.6,4.6,64,0.00,OVC,,0.00,WeatherDisplay:10.37,2013-08-07 12:46:00,
2013-08-07 08:51:00,69.7,56.6,30.16,South,180,3.5,3.5,63,0.00,OVC,,0.00,WeatherDisplay:10.37,2013-08-07 12:51:00,
2013-08-07 08:56:00,70.1,57.3,30.16,SW,225,3.5,3.5,64,0.00,OVC,,0.00,WeatherDisplay:10.37,2013-08-07 12:56:00,
2013-08-07 09:01:00,69.9,56.7,30.16,WSW,248,3.5,3.5,63,0.00,OVC,,0.00,WeatherDisplay:10.37,2013-08-07 13:01:00,
2013-08-07 09:06:00,69.1,55.9,30.15,SW,225,3.5,3.5,63,0.00,FEW,,0.00,WeatherDisplay:10.37,2013-08-07 13:06:00,
2013-08-07 09:11:00,68.7,59.3,30.15,WSW,248,4.6,4.6,72,0.00,FEW,,0.00,WeatherDisplay:10.37,2013-08-07 13:11:00,
2013-08-07 09:16:00,68.5,59.1,30.15,South,180,3.5,3.5,72,0.00,FEW,,0.00,WeatherDisplay:10.37,2013-08-07 13:16:00,
2013-08-07 09:21:00,68.6,55.5,30.15,SSE,158,3.5,3.5,63,0.00,FEW,,0.00,WeatherDisplay:10.37,2013-08-07 13:21:00,
2013-08-07 09:26:00,69.1,59.7,30.15,SSE,158,5.9,5.9,72,0.00,FEW,,0.00,WeatherDisplay:10.37,2013-08-07 13:26:00,
2013-08-07 09:31:00,69.3,59.9,30.15,South,180,6.9,6.9,72,0.00,FEW,,0.00,WeatherDisplay:10.37,2013-08-07 13:31:00,
2013-08-07 09:36:00,69.6,56.9,30.15,SE,135,8.1,8.1,64,0.00,FEW,,0.00,WeatherDisplay:10.37,2013-08-07 13:36:00,
2013-08-07 09:41:00,70.2,57.4,30.15,West,270,6.9,6.9,64,0.00,FEW,,0.00,WeatherDisplay:10.37,2013-08-07 13:41:00,
2013-08-07 09:46:00,70.8,58.0,30.15,SE,135,3.5,3.5,64,0.00,FEW,,0.00,WeatherDisplay:10.37,2013-08-07 13:46:00,
2013-08-07 09:51:00,71.0,58.2,30.15,East,90,8.1,8.1,64,0.00,FEW,,0.00,WeatherDisplay:10.37,2013-08-07 13:51:00,
2013-08-07 09:56:00,71.1,61.6,30.15,SSE,158,3.5,3.5,72,0.00,FEW,,0.00,WeatherDisplay:10.37,2013-08-07 13:56:00,
2013-08-07 10:02:00,70.9,58.1,30.14,SSE,158,8.1,8.1,64,0.00,CLR,,0.00,WeatherDisplay:10.37,2013-08-07 14:02:00,
2013-08-07 10:07:00,71.3,58.5,30.14,West,270,6.9,6.9,64,0.00,CLR,,0.00,WeatherDisplay:10.37,2013-08-07 14:07:00,
2013-08-07 10:12:00,71.3,58.9,30.14,WNW,292,5.8,5.8,65,0.00,CLR,,0.00,WeatherDisplay:10.37,2013-08-07 14:12:00,
2013-08-07 10:17:00,71.9,59.1,30.14,South,180,9.2,9.2,64,0.00,CLR,,0.00,WeatherDisplay:10.37,2013-08-07 14:17:00,
2013-08-07 10:22:00,72.4,59.5,30.14,SE,135,9.2,9.2,64,0.00,CLR,,0.00,WeatherDisplay:10.37,2013-08-07 14:22:00,
2013-08-07 10:27:00,72.6,59.7,30.14,East,90,8.9,8.9,64,0.00,CLR,,0.00,WeatherDisplay:10.37,2013-08-07 14:27:00,
2013-08-07 10:32:00,73.0,60.1,30.14,SW,225,4.6,4.6,64,0.00,CLR,,0.00,WeatherDisplay:10.37,2013-08-07 14:32:00,
2013-08-07 10:37:00,73.3,60.4,30.14,NNW,338,4.6,4.6,64,0.00,CLR,,0.00,WeatherDisplay:10.37,2013-08-07 14:37:00,
2013-08-07 10:42:00,74.1,61.6,30.14,ENE,68,8.1,8.1,65,0.00,CLR,,0.00,WeatherDisplay:10.37,2013-08-07 14:42:00,
2013-08-07 10:47:00,74.5,61.5,30.14,NE,45,8.1,8.1,64,0.00,CLR,,0.00,WeatherDisplay:10.37,2013-08-07 14:47:00,
2013-08-07 10:52:00,75.0,62.0,30.14,SW,225,9.2,9.2,64,0.00,CLR,,0.00,WeatherDisplay:10.37,2013-08-07 14:52:00,
2013-08-07 10:57:00,75.3,62.7,30.14,SE,135,8.1,8.1,65,0.00,CLR,,0.00,WeatherDisplay:10.37,2013-08-07 14:57:00,
2013-08-07 11:02:00,75.6,63.0,30.14,SSE,158,10.4,10.4,65,0.00,CLR,,0.00,WeatherDisplay:10.37,2013-08-07 15:02:00,
2013-08-07 11:07:00,75.3,61.8,30.14,South,180,11.5,11.5,63,0.00,CLR,,0.00,WeatherDisplay:10.37,2013-08-07 15:07:00,
2013-08-07 11:12:00,76.2,63.5,30.14,WSW,248,9.2,9.2,65,0.00,CLR,,0.00,WeatherDisplay:10.37,2013-08-07 15:12:00,
2013-08-07 11:17:00,76.2,63.1,30.14,North,360,9.2,9.2,64,0.00,CLR,,0.00,WeatherDisplay:10.37,2013-08-07 15:17:00,
2013-08-07 11:22:00,75.9,63.3,30.14,SW,225,8.1,8.1,65,0.00,CLR,,0.00,WeatherDisplay:10.37,2013-08-07 15:22:00,
2013-08-07 11:27:00,75.8,59.0,30.12,SE,135,9.2,9.2,56,0.00,SCT,,0.00,WeatherDisplay:10.37,2013-08-07 15:27:00,
2013-08-07 11:32:00,76.0,62.9,30.12,SE,135,8.2,8.2,64,0.00,SCT,,0.00,WeatherDisplay:10.37,2013-08-07 15:32:00,
2013-08-07 11:38:00,76.0,62.9,30.12,SSW,202,15.0,15.0,64,0.00,SCT,,0.00,WeatherDisplay:10.37,2013-08-07 15:38:00,
2013-08-07 11:43:00,75.3,61.8,30.12,ESE,112,6.9,6.9,63,0.00,SCT,,0.00,WeatherDisplay:10.37,2013-08-07 15:43:00,
2013-08-07 11:48:00,74.8,61.8,30.12,South,180,8.1,8.1,64,0.00,SCT,,0.00,WeatherDisplay:10.37,2013-08-07 15:48:00,
2013-08-07 11:53:00,75.1,62.1,30.12,SSE,158,6.9,6.9,64,0.00,SCT,,0.00,WeatherDisplay:10.37,2013-08-07 15:53:00,
2013-08-07 11:58:00,75.5,58.7,30.12,ENE,68,13.8,13.8,56,0.00,SCT,,0.00,WeatherDisplay:10.37,2013-08-07 15:58:00,
2013-08-07 12:06:00,76.5,63.9,30.12,SSE,158,8.1,8.1,65,0.00,BKN,,0.00,WeatherDisplay:10.37,2013-08-07 16:06:00,
2013-08-07 12:11:00,76.9,58.5,30.12,West,270,12.7,12.7,53,0.00,BKN,,0.00,WeatherDisplay:10.37,2013-08-07 16:11:00,
2013-08-07 12:16:00,77.6,64.4,30.12,NE,45,15.0,15.0,64,0.00,BKN,,0.00,WeatherDisplay:10.37,2013-08-07 16:16:00,
2013-08-07 12:21:00,77.4,58.9,30.12,NNE,22,10.4,10.4,53,0.00,BKN,,0.00,WeatherDisplay:10.37,2013-08-07 16:21:00,
2013-08-07 12:26:00,77.4,64.3,30.12,ENE,68,9.2,9.2,64,0.00,BKN,,0.00,WeatherDisplay:10.37,2013-08-07 16:26:00,
2013-08-07 12:31:00,76.8,63.7,30.12,South,180,10.4,10.4,64,0.00,BKN,,0.00,WeatherDisplay:10.37,2013-08-07 16:31:00,
2013-08-07 12:36:00,76.9,64.2,30.12,SSE,158,5.8,5.8,65,0.00,BKN,,0.00,WeatherDisplay:10.37,2013-08-07 16:36:00,
2013-08-07 12:41:00,76.8,63.7,30.12,SSW,202,13.8,13.8,64,0.00,BKN,,0.00,WeatherDisplay:10.37,2013-08-07 16:41:00,
2013-08-07 12:46:00,76.7,64.1,30.12,ESE,112,11.5,11.5,65,0.00,BKN,,0.00,WeatherDisplay:10.37,2013-08-07 16:46:00,
2013-08-07 12:51:00,77.1,58.6,30.12,East,90,10.4,10.4,53,0.00,BKN,,0.00,WeatherDisplay:10.37,2013-08-07 16:51:00,
2013-08-07 12:56:00,77.9,64.7,30.12,NW,315,4.6,4.6,64,0.00,BKN,,0.00,WeatherDisplay:10.37,2013-08-07 16:56:00,
2013-08-07 13:01:00,77.9,64.7,30.11,ENE,68,6.9,6.9,64,0.00,FEW,,0.00,WeatherDisplay:10.37,2013-08-07 17:01:00,
2013-08-07 13:06:00,78.1,59.5,30.11,SW,225,8.1,8.1,53,0.00,FEW,,0.00,WeatherDisplay:10.37,2013-08-07 17:06:00,
2013-08-07 13:11:00,79.0,65.8,30.11,East,90,8.1,8.1,64,0.00,FEW,,0.00,WeatherDisplay:10.37,2013-08-07 17:11:00,
2013-08-07 13:16:00,80.0,67.2,30.11,SSE,158,10.4,10.4,65,0.00,FEW,,0.00,WeatherDisplay:10.37,2013-08-07 17:16:00,
2013-08-07 13:21:00,81.4,68.9,30.11,ENE,68,8.1,8.1,66,0.00,FEW,,0.00,WeatherDisplay:10.37,2013-08-07 17:21:00,
2013-08-07 13:26:00,81.6,68.6,30.11,ESE,112,9.2,9.2,65,0.00,FEW,,0.00,WeatherDisplay:10.37,2013-08-07 17:26:00,
2013-08-07 13:31:00,82.1,69.2,30.11,North,360,4.6,4.6,65,0.00,FEW,,0.00,WeatherDisplay:10.37,2013-08-07 17:31:00,
2013-08-07 13:36:00,81.6,68.6,30.11,South,180,11.5,11.5,65,0.00,FEW,,0.00,WeatherDisplay:10.37,2013-08-07 17:36:00,
2013-08-07 13:41:00,80.9,68.1,30.11,East,90,15.0,15.0,65,0.00,FEW,,0.00,WeatherDisplay:10.37,2013-08-07 17:41:00,
2013-08-07 13:46:00,80.2,61.5,30.11,ESE,112,9.2,9.2,53,0.00,FEW,,0.00,WeatherDisplay:10.37,2013-08-07 17:46:00,
2013-08-07 13:52:00,80.1,66.8,30.11,SW,225,9.2,9.2,64,0.00,FEW,,0.00,WeatherDisplay:10.37,2013-08-07 17:52:00,
2013-08-07 13:57:00,80.0,61.3,30.11,West,270,10.4,10.4,53,0.00,FEW,,0.00,WeatherDisplay:10.37,2013-08-07 17:57:00,
2013-08-07 14:02:00,80.0,56.1,30.10,East,90,9.2,9.2,44,0.00,BKN,,0.00,WeatherDisplay:10.37,2013-08-07 18:02:00,
2013-08-07 14:07:00,81.2,68.3,30.10,South,180,11.7,11.7,65,0.00,BKN,,0.00,WeatherDisplay:10.37,2013-08-07 18:07:00,
2013-08-07 14:12:00,82.1,69.1,30.10,West,270,12.7,12.7,65,0.00,BKN,,0.00,WeatherDisplay:10.37,2013-08-07 18:12:00,
2013-08-07 14:17:00,83.0,69.5,30.10,WSW,248,4.6,4.6,64,0.00,BKN,,0.00,WeatherDisplay:10.37,2013-08-07 18:17:00,
2013-08-07 14:22:00,82.3,68.4,30.10,South,180,3.5,3.5,63,0.00,BKN,,0.00,WeatherDisplay:10.37,2013-08-07 18:22:00,
2013-08-07 14:27:00,80.7,67.3,30.10,ENE,68,9.2,9.2,64,0.00,BKN,,0.00,WeatherDisplay:10.37,2013-08-07 18:27:00,
2013-08-07 14:32:00,78.6,65.0,30.10,ESE,112,4.6,4.6,63,0.00,BKN,,0.00,WeatherDisplay:10.37,2013-08-07 18:32:00,
2013-08-07 14:37:00,77.6,64.4,30.10,SSW,202,3.5,3.5,64,0.00,BKN,,0.00,WeatherDisplay:10.37,2013-08-07 18:37:00,
2013-08-07 14:43:00,77.2,63.6,30.10,SW,225,10.4,10.4,63,0.00,BKN,,0.00,WeatherDisplay:10.37,2013-08-07 18:43:00,
2013-08-07 14:48:00,77.4,64.7,30.10,ESE,112,3.5,3.5,65,0.00,BKN,,0.00,WeatherDisplay:10.37,2013-08-07 18:48:00,
2013-08-07 14:53:00,78.3,65.6,30.10,SE,135,1.2,1.2,65,0.00,BKN,,0.00,WeatherDisplay:10.37,2013-08-07 18:53:00,
2013-08-07 14:58:00,78.4,65.2,30.10,SSE,158,5.8,5.8,64,0.00,BKN,,0.00,WeatherDisplay:10.37,2013-08-07 18:58:00,
2013-08-07 15:03:00,79.1,66.4,30.11,ENE,68,5.0,5.0,65,0.00,OVC,,0.00,WeatherDisplay:10.37,2013-08-07 19:03:00,
2013-08-07 15:08:00,79.9,67.1,30.11,SE,135,5.8,5.8,65,0.00,OVC,,0.00,WeatherDisplay:10.37,2013-08-07 19:08:00,
2013-08-07 15:13:00,81.0,68.6,30.11,SSE,158,6.9,6.9,66,0.00,OVC,,0.00,WeatherDisplay:10.37,2013-08-07 19:13:00,
2013-08-07 15:18:00,80.4,67.1,30.11,ESE,112,12.7,12.7,64,0.00,OVC,,0.00,WeatherDisplay:10.37,2013-08-07 19:18:00,
2013-08-07 15:23:00,80.6,63.5,30.11,East,90,8.1,8.1,56,0.00,OVC,,0.00,WeatherDisplay:10.37,2013-08-07 19:23:00,
2013-08-07 15:28:00,81.0,68.1,30.11,SE,135,8.1,8.1,65,0.00,OVC,,0.00,WeatherDisplay:10.37,2013-08-07 19:28:00,
2013-08-07 15:33:00,81.7,64.5,30.11,NNW,338,8.1,8.1,56,0.00,OVC,,0.00,WeatherDisplay:10.37,2013-08-07 19:33:00,
2013-08-07 15:39:00,81.8,68.9,30.11,ESE,112,4.6,4.6,65,0.00,OVC,,0.00,WeatherDisplay:10.37,2013-08-07 19:39:00,
2013-08-07 15:44:00,80.8,67.5,30.11,West,270,6.9,6.9,64,0.00,OVC,,0.00,WeatherDisplay:10.37,2013-08-07 19:44:00,
2013-08-07 15:49:00,79.3,66.1,30.11,East,90,6.9,6.9,64,0.00,OVC,,0.00,WeatherDisplay:10.37,2013-08-07 19:49:00,
2013-08-07 15:54:00,78.2,65.0,30.11,North,360,3.5,3.5,64,0.00,OVC,,0.00,WeatherDisplay:10.37,2013-08-07 19:54:00,
2013-08-07 15:59:00,77.6,64.5,30.11,South,180,4.6,4.6,64,0.00,OVC,,0.00,WeatherDisplay:10.37,2013-08-07 19:59:00,
2013-08-07 16:04:00,77.7,65.0,30.09,East,90,4.6,4.6,65,0.00,OVC,,0.00,WeatherDisplay:10.37,2013-08-07 20:04:00,
2013-08-07 16:09:00,77.9,64.7,30.09,South,180,8.1,8.1,64,0.00,OVC,,0.00,WeatherDisplay:10.37,2013-08-07 20:09:00,
2013-08-07 16:14:00,78.3,61.3,30.09,South,180,8.1,8.1,56,0.00,OVC,,0.00,WeatherDisplay:10.37,2013-08-07 20:14:00,
2013-08-07 16:19:00,78.2,61.2,30.09,SW,225,4.6,4.6,56,0.00,OVC,,0.00,WeatherDisplay:10.37,2013-08-07 20:19:00,
2013-08-07 16:24:00,78.1,65.0,30.09,West,270,4.6,4.6,64,0.00,OVC,,0.00,WeatherDisplay:10.37,2013-08-07 20:24:00,
2013-08-07 16:29:00,77.8,60.9,30.09,SSE,158,4.6,4.6,56,0.00,OVC,,0.00,WeatherDisplay:10.37,2013-08-07 20:29:00,
2013-08-07 16:34:00,78.1,64.9,30.09,NNE,22,9.2,9.2,64,0.00,OVC,,0.00,WeatherDisplay:10.37,2013-08-07 20:34:00,
2013-08-07 16:39:00,77.6,64.4,30.09,SSW,202,15.1,15.1,64,0.00,OVC,,0.00,WeatherDisplay:10.37,2013-08-07 20:39:00,
2013-08-07 16:44:00,77.9,60.9,30.09,SE,135,5.8,5.8,56,0.00,OVC,,0.00,WeatherDisplay:10.37,2013-08-07 20:44:00,
2013-08-07 16:49:00,78.2,65.1,30.09,South,180,5.8,5.8,64,0.00,OVC,,0.00,WeatherDisplay:10.37,2013-08-07 20:49:00,
2013-08-07 16:54:00,79.0,65.8,30.09,WNW,292,4.6,4.6,64,0.00,OVC,,0.00,WeatherDisplay:10.37,2013-08-07 20:54:00,
2013-08-07 16:59:00,80.2,66.9,30.09,South,180,10.4,10.4,64,0.00,OVC,,0.00,WeatherDisplay:10.37,2013-08-07 20:59:00,
2013-08-07 17:04:00,80.2,66.9,30.08,SSE,158,13.6,13.6,64,0.00,OVC,,0.00,WeatherDisplay:10.37,2013-08-07 21:04:00,
2013-08-07 17:09:00,79.0,65.7,30.08,East,90,13.8,13.8,64,0.00,OVC,,0.00,WeatherDisplay:10.37,2013-08-07 21:09:00,
2013-08-07 17:14:00,77.8,65.1,30.08,ESE,112,9.2,9.2,65,0.00,OVC,,0.00,WeatherDisplay:10.37,2013-08-07 21:14:00,
2013-08-07 17:19:00,77.0,63.9,30.08,NW,315,5.8,5.8,64,0.00,OVC,,0.00,WeatherDisplay:10.37,2013-08-07 21:19:00,
2013-08-07 17:24:00,75.7,62.7,30.08,SW,225,6.0,6.0,64,0.00,OVC,,0.00,WeatherDisplay:10.37,2013-08-07 21:24:00,
2013-08-07 17:29:00,76.0,57.6,30.08,East,90,16.1,16.1,53,0.00,OVC,,0.00,WeatherDisplay:10.37,2013-08-07 21:29:00,
2013-08-07 17:34:00,76.3,63.2,30.08,East,90,11.5,11.5,64,0.00,OVC,,0.00,WeatherDisplay:10.37,2013-08-07 21:34:00,
2013-08-07 17:39:00,76.6,63.5,30.08,NW,315,9.0,9.0,64,0.00,OVC,,0.00,WeatherDisplay:10.37,2013-08-07 21:39:00,
2013-08-07 17:44:00,76.3,57.9,30.08,South,180,13.8,13.8,53,0.00,OVC,,0.00,WeatherDisplay:10.37,2013-08-07 21:44:00,
2013-08-07 17:49:00,75.5,62.5,30.08,NE,45,7.5,7.5,64,0.00,OVC,,0.00,WeatherDisplay:10.37,2013-08-07 21:49:00,
2013-08-07 17:54:00,74.8,56.5,30.08,South,180,9.2,9.2,53,0.00,OVC,,0.00,WeatherDisplay:10.37,2013-08-07 21:54:00,
2013-08-07 17:59:00,74.1,60.7,30.08,East,90,11.5,11.5,63,0.00,OVC,,0.00,WeatherDisplay:10.37,2013-08-07 21:59:00,
2013-08-07 18:04:00,74.1,61.1,30.07,East,90,4.6,4.6,64,0.00,SCT,,0.00,WeatherDisplay:10.37,2013-08-07 22:04:00,
2013-08-07 18:09:00,74.1,55.9,30.07,WSW,248,8.1,8.1,53,0.00,SCT,,0.00,WeatherDisplay:10.37,2013-08-07 22:09:00,
2013-08-07 18:14:00,74.2,60.8,30.07,NW,315,6.5,6.5,63,0.00,SCT,,0.00,WeatherDisplay:10.37,2013-08-07 22:14:00,
2013-08-07 18:20:00,73.7,59.9,30.07,SW,225,6.9,6.9,62,0.00,SCT,,0.00,WeatherDisplay:10.37,2013-08-07 22:20:00,
2013-08-07 18:25:00,73.5,55.3,30.07,SSE,158,6.9,6.9,53,0.00,SCT,,0.00,WeatherDisplay:10.37,2013-08-07 22:25:00,
2013-08-07 18:30:00,73.3,59.0,30.07,WSW,246,3.0,12.0,61,0.00,SCT,,0.00,WeatherDisplay:10.37,2013-08-07 22:30:00,
2013-08-07 18:36:00,72.6,58.8,30.07,South,180,4.6,4.6,62,0.00,SCT,,0.00,WeatherDisplay:10.37,2013-08-07 22:36:00,
2013-08-07 18:41:00,72.2,58.0,30.07,SSE,158,8.3,8.3,61,0.00,SCT,,0.00,WeatherDisplay:10.37,2013-08-07 22:41:00,
2013-08-07 18:46:00,72.0,58.3,30.07,ESE,112,5.8,5.8,62,0.00,SCT,,0.00,WeatherDisplay:10.37,2013-08-07 22:46:00,
2013-08-07 18:51:00,71.8,58.5,30.07,NNW,338,4.6,4.6,63,0.00,SCT,,0.00,WeatherDisplay:10.37,2013-08-07 22:51:00,
2013-08-07 18:56:00,71.2,57.5,30.07,NNW,338,3.5,3.5,62,0.00,SCT,,0.00,WeatherDisplay:10.37,2013-08-07 22:56:00,
2013-08-07 19:01:00,71.1,54.6,30.07,NW,315,6.9,6.9,56,0.00,BKN,,0.00,WeatherDisplay:10.37,2013-08-07 23:01:00,
2013-08-07 19:06:00,71.0,56.9,30.07,South,180,8.1,8.1,61,0.00,BKN,,0.00,WeatherDisplay:10.37,2013-08-07 23:06:00,
2013-08-07 19:11:00,70.7,54.2,30.07,SW,225,5.8,5.8,56,0.00,BKN,,0.00,WeatherDisplay:10.37,2013-08-07 23:11:00,
2013-08-07 19:16:00,70.2,55.7,30.07,SE,135,6.0,6.0,60,0.00,BKN,,0.00,WeatherDisplay:10.37,2013-08-07 23:16:00,
2013-08-07 19:21:00,69.8,54.8,30.07,SW,225,6.9,6.9,59,0.00,BKN,,0.00,WeatherDisplay:10.37,2013-08-07 23:21:00,
2013-08-07 19:27:00,68.5,52.7,30.07,WNW,292,4.6,4.6,57,0.00,BKN,,0.00,WeatherDisplay:10.37,2013-08-07 23:27:00,
2013-08-07 19:32:00,68.2,51.9,30.07,SW,225,6.9,6.9,56,0.00,BKN,,0.00,WeatherDisplay:10.37,2013-08-07 23:32:00,
2013-08-07 19:38:00,67.4,51.7,30.07,WNW,292,8.1,8.1,57,0.00,BKN,,0.00,WeatherDisplay:10.37,2013-08-07 23:38:00,
2013-08-07 19:43:00,67.2,51.5,30.07,West,270,1.2,1.2,57,0.00,BKN,,0.00,WeatherDisplay:10.37,2013-08-07 23:43:00,
2013-08-07 19:48:00,66.9,50.7,30.07,ENE,68,5.8,5.8,56,0.00,BKN,,0.00,WeatherDisplay:10.37,2013-08-07 23:48:00,
2013-08-07 19:53:00,66.8,50.6,30.07,SSW,202,6.9,6.9,56,0.00,BKN,,0.00,WeatherDisplay:10.37,2013-08-07 23:53:00,
2013-08-07 19:58:00,66.6,50.4,30.07,NE,45,5.8,5.8,56,0.00,BKN,,0.00,WeatherDisplay:10.37,2013-08-07 23:58:00,
2013-08-07 20:03:00,66.4,51.6,30.06,WSW,248,4.6,4.6,59,0.00,SCT,,0.00,WeatherDisplay:10.37,2013-08-08 00:03:00,
2013-08-07 20:08:00,66.2,50.0,30.06,West,270,1.2,1.2,56,0.00,SCT,,0.00,WeatherDisplay:10.37,2013-08-08 00:08:00,
2013-08-07 20:13:00,65.8,51.5,30.06,West,270,3.5,3.5,60,0.00,SCT,,0.00,WeatherDisplay:10.37,2013-08-08 00:13:00,
2013-08-07 20:18:00,65.6,51.4,30.06,South,180,1.2,1.2,60,0.00,SCT,,0.00,WeatherDisplay:10.37,2013-08-08 00:18:00,
2013-08-07 20:23:00,65.3,50.1,30.06,WNW,292,4.5,4.5,58,0.00,SCT,,0.00,WeatherDisplay:10.37,2013-08-08 00:23:00,
2013-08-07 20:29:00,65.1,50.9,30.06,NNW,338,3.5,3.5,60,0.00,SCT,,0.00,WeatherDisplay:10.37,2013-08-08 00:29:00,
2013-08-07 20:34:00,65.2,49.1,30.06,WSW,248,0.0,0.0,56,0.00,SCT,,0.00,WeatherDisplay:10.37,2013-08-08 00:34:00,
2013-08-07 20:39:00,65.0,49.9,30.06,SW,225,0.0,0.0,58,0.00,SCT,,0.00,WeatherDisplay:10.37,2013-08-08 00:39:00,
2013-08-07 20:44:00,65.0,49.4,30.06,ENE,68,0.0,0.0,57,0.00,SCT,,0.00,WeatherDisplay:10.37,2013-08-08 00:44:00,
2013-08-07 20:50:00,64.8,48.7,30.06,SE,135,4.6,4.6,56,0.00,SCT,,0.00,WeatherDisplay:10.37,2013-08-08 00:50:00,
2013-08-07 20:55:00,64.6,48.6,30.06,NW,315,4.7,4.7,56,0.00,SCT,,0.00,WeatherDisplay:10.37,2013-08-08 00:55:00,
2013-08-07 21:00:00,64.9,49.3,30.06,East,90,15.0,15.0,57,0.00,SCT,,0.00,WeatherDisplay:10.37,2013-08-08 01:00:00,
2013-08-07 21:05:00,65.1,49.9,30.07,SSW,202,8.1,8.1,58,0.00,OVC,,0.00,WeatherDisplay:10.37,2013-08-08 01:05:00,
2013-08-07 21:10:00,65.4,49.2,30.07,NW,315,4.7,4.7,56,0.00,OVC,,0.00,WeatherDisplay:10.37,2013-08-08 01:10:00,
2013-08-07 21:16:00,65.2,50.9,30.07,East,90,4.6,4.6,60,0.00,OVC,,0.00,WeatherDisplay:10.37,2013-08-08 01:16:00,
2013-08-07 21:21:00,64.7,49.1,30.07,North,360,3.5,3.5,57,0.00,OVC,,0.00,WeatherDisplay:10.37,2013-08-08 01:21:00,
2013-08-07 21:26:00,64.2,48.7,30.07,NNE,22,4.7,4.7,57,0.00,OVC,,0.00,WeatherDisplay:10.37,2013-08-08 01:26:00,
2013-08-07 21:31:00,63.4,48.4,30.07,ESE,112,5.8,5.8,58,0.00,OVC,,0.00,WeatherDisplay:10.37,2013-08-08 01:31:00,
2013-08-07 21:36:00,63.2,47.3,30.07,SSW,202,4.6,4.6,56,0.00,OVC,,0.00,WeatherDisplay:10.37,2013-08-08 01:36:00,
2013-08-07 21:41:00,62.9,48.8,30.07,SW,225,3.5,3.5,60,0.00,OVC,,0.00,WeatherDisplay:10.37,2013-08-08 01:41:00,
2013-08-07 21:46:00,63.0,47.0,30.07,WNW,292,3.5,3.5,56,0.00,OVC,,0.00,WeatherDisplay:10.37,2013-08-08 01:46:00,
2013-08-07 21:51:00,62.9,47.5,30.07,SE,135,0.0,0.0,57,0.00,OVC,,0.00,WeatherDisplay:10.37,2013-08-08 01:51:00,
2013-08-07 21:56:00,62.9,46.9,30.07,NW,315,0.0,0.0,56,0.00,OVC,,0.00,WeatherDisplay:10.37,2013-08-08 01:56:00,
2013-08-07 22:01:00,62.9,52.2,30.07,ESE,112,5.8,5.8,68,0.00,OVC,,0.00,WeatherDisplay:10.37,2013-08-08 02:01:00,
2013-08-07 22:06:00,62.9,47.5,30.07,NW,315,3.5,3.5,57,0.00,OVC,,0.00,WeatherDisplay:10.37,2013-08-08 02:06:00,
2013-08-07 22:11:00,62.8,52.1,30.07,West,270,0.0,0.0,68,0.00,OVC,,0.00,WeatherDisplay:10.37,2013-08-08 02:11:00,
2013-08-07 22:16:00,62.6,46.7,30.07,West,270,3.5,3.5,56,0.00,OVC,,0.00,WeatherDisplay:10.37,2013-08-08 02:16:00,
2013-08-07 22:21:00,62.7,47.2,30.07,West,270,0.0,0.0,57,0.00,OVC,,0.00,WeatherDisplay:10.37,2013-08-08 02:21:00,
2013-08-07 22:26:00,62.3,51.6,30.07,West,270,0.0,0.0,68,0.00,OVC,,0.00,WeatherDisplay:10.37,2013-08-08 02:26:00,
2013-08-07 22:31:00,62.4,46.9,30.07,SSW,202,0.0,0.0,57,0.00,OVC,,0.00,WeatherDisplay:10.37,2013-08-08 02:31:00,
2013-08-07 22:36:00,62.2,46.7,30.07,North,360,0.0,0.0,57,0.00,OVC,,0.00,WeatherDisplay:10.37,2013-08-08 02:36:00,
2013-08-07 22:41:00,62.3,46.9,30.07,NW,315,0.0,0.0,57,0.00,OVC,,0.00,WeatherDisplay:10.37,2013-08-08 02:41:00,
2013-08-07 22:46:00,62.3,51.6,30.07,West,270,4.6,4.6,68,0.00,OVC,,0.00,WeatherDisplay:10.37,2013-08-08 02:46:00,
2013-08-07 22:51:00,62.2,51.5,30.07,SW,225,3.5,3.5,68,0.00,OVC,,0.00,WeatherDisplay:10.37,2013-08-08 02:51:00,
2013-08-07 22:56:00,62.0,46.1,30.07,NE,45,0.0,0.0,56,0.00,OVC,,0.00,WeatherDisplay:10.37,2013-08-08 02:56:00,
2013-08-07 23:01:00,61.9,46.0,30.07,SW,225,0.0,0.1,56,0.00,OVC,,0.00,WeatherDisplay:10.37,2013-08-08 03:01:00,
2013-08-07 23:06:00,61.8,45.9,30.06,South,180,4.6,4.6,56,0.00,OVC,,0.00,WeatherDisplay:10.37,2013-08-08 03:06:00,
2013-08-07 23:11:00,61.6,52.5,30.06,NW,315,3.5,3.5,72,0.00,OVC,,0.00,WeatherDisplay:10.37,2013-08-08 03:11:00,
2013-08-07 23:16:00,61.5,46.1,30.06,SSW,202,3.5,3.5,57,0.00,OVC,,0.00,WeatherDisplay:10.37,2013-08-08 03:16:00,
2013-08-07 23:21:00,61.5,46.6,30.06,South,180,0.0,0.0,58,0.00,OVC,,0.00,WeatherDisplay:10.37,2013-08-08 03:21:00,
2013-08-07 23:26:00,61.5,52.4,30.06,West,270,4.6,4.6,72,0.00,OVC,,0.00,WeatherDisplay:10.37,2013-08-08 03:26:00,
2013-08-07 23:31:00,61.3,45.5,30.06,South,180,0.0,0.0,56,0.00,OVC,,0.00,WeatherDisplay:10.37,2013-08-08 03:31:00,
2013-08-07 23:36:00,61.4,52.3,30.06,WNW,292,0.0,0.0,72,0.00,OVC,,0.00,WeatherDisplay:10.37,2013-08-08 03:36:00,
2013-08-07 23:41:00,61.6,45.7,30.06,WNW,292,6.0,6.0,56,0.00,OVC,,0.00,WeatherDisplay:10.37,2013-08-08 03:41:00,
2013-08-07 23:46:00,62.0,52.9,30.06,West,270,3.5,3.5,72,0.00,OVC,,0.00,WeatherDisplay:10.37,2013-08-08 03:46:00,
2013-08-07 23:51:00,62.0,46.1,30.06,NW,315,4.6,4.6,56,0.00,OVC,,0.00,WeatherDisplay:10.37,2013-08-08 03:51:00,
2013-08-07 23:56:00,62.1,46.7,30.06,WSW,248,1.2,0.0,57,0.00,OVC,,0.00,WeatherDisplay:10.37,2013-08-08 03:56:00,